Dumfries, Virginia
Current Conditions -  °F | °C
As of 3:56 PM on Tuesday 27 Jan 2015 (Local Time) from KNYG Reporting Station
Broken Clouds Broken Clouds  
Wind Chill: 25°   Ceiling: 2800
Heat Index: 34°   Visibility: 10mi
Dew Point: 22°   Wind: 14mph
Humidity: 61%   Direction: 340°NNW
Pressure: 29.85"   Gusts: 25mph
Location:  38.57°N, 77.33°W
Report Text: KNYG 272056Z 34012G22KT 10SM BKN028 BKN060 BKN160 01/M06 A2985 RMK AO2 SLP109 T00111056 53009 $
Loading
Personal Weather Stations






























Interactive Weather Map New forecast layout! Learn more

10-Day Weather Forecast

Advertisements
Track Severe Weather on mobile